createdAt,value
2023-05-05T00:03:38.879Z,99.90
2023-05-05T00:08:42.065Z,99.90
2023-05-05T00:13:45.121Z,99.90
2023-05-05T00:18:48.089Z,99.90
2023-05-05T00:23:51.394Z,99.90
2023-05-05T00:28:54.300Z,99.90
2023-05-05T00:33:57.266Z,99.90
2023-05-05T00:39:00.232Z,99.90
2023-05-05T00:44:03.480Z,99.90
2023-05-05T00:49:06.883Z,99.90
2023-05-05T00:54:10.056Z,99.90
2023-05-05T00:59:13.007Z,99.90
2023-05-05T01:04:16.169Z,99.90
2023-05-05T01:09:43.134Z,99.90
2023-05-05T01:15:01.376Z,99.90
2023-05-05T01:20:54.883Z,99.90
2023-05-05T01:26:32.603Z,99.90
2023-05-05T01:31:54.950Z,99.90
2023-05-05T01:37:27.030Z,99.90
2023-05-05T01:42:30.926Z,99.90
2023-05-05T01:47:36.070Z,99.90
2023-05-05T01:52:41.920Z,99.90
2023-05-05T01:57:47.078Z,99.90
2023-05-05T02:02:50.857Z,99.90
2023-05-05T02:08:00.174Z,99.90
2023-05-05T02:13:04.584Z,99.90
2023-05-05T02:18:08.543Z,99.90
2023-05-05T02:23:11.526Z,99.90
2023-05-05T02:28:51.300Z,99.90
2023-05-05T02:34:01.429Z,99.90
2023-05-05T02:39:14.364Z,99.90
2023-05-05T02:44:19.587Z,99.90
2023-05-05T02:49:22.657Z,99.90
2023-05-05T02:54:27.344Z,99.90
2023-05-05T02:59:58.539Z,99.90
2023-05-05T03:05:11.085Z,99.90
2023-05-05T03:10:20.361Z,99.90
2023-05-05T03:15:41.549Z,99.90
2023-05-05T03:20:44.577Z,99.90
2023-05-05T03:25:49.561Z,99.90
2023-05-05T03:30:53.416Z,99.90
2023-05-05T03:35:56.288Z,99.90
2023-05-05T03:41:03.459Z,99.90
2023-05-05T03:46:06.498Z,99.90
2023-05-05T03:51:09.767Z,99.90
2023-05-05T03:56:13.524Z,99.90
2023-05-05T04:01:16.774Z,99.90
2023-05-05T04:06:19.623Z,99.90
2023-05-05T04:11:22.692Z,99.90
2023-05-05T04:16:26.181Z,99.90
2023-05-05T04:21:29.255Z,99.90
2023-05-05T04:26:32.293Z,99.90
2023-05-05T04:31:35.439Z,99.90
2023-05-05T04:36:38.452Z,99.90
2023-05-05T04:41:41.364Z,99.90
2023-05-05T04:46:44.390Z,99.90
2023-05-05T04:51:47.398Z,99.90
2023-05-05T04:56:50.892Z,99.90
2023-05-05T05:01:53.888Z,99.90
2023-05-05T05:06:59.095Z,99.90
2023-05-05T05:12:03.168Z,99.90
2023-05-05T05:17:07.108Z,99.90
2023-05-05T05:22:10.038Z,99.90
2023-05-05T05:27:13.091Z,99.90
2023-05-05T05:32:15.853Z,99.90
2023-05-05T05:37:19.193Z,99.90
2023-05-05T05:42:22.363Z,99.90
2023-05-05T05:47:25.695Z,99.90
2023-05-05T05:52:28.695Z,99.90
2023-05-05T05:57:32.427Z,99.90
2023-05-05T06:02:35.569Z,99.90
2023-05-05T06:07:38.692Z,99.90
2023-05-05T06:12:42.068Z,99.90
2023-05-05T06:17:45.064Z,99.90
2023-05-05T06:22:47.880Z,98.40
2023-05-05T06:27:51.106Z,98.20
2023-05-05T06:32:54.388Z,96.70
2023-05-05T06:37:57.572Z,95.40
2023-05-05T06:43:00.655Z,93.70
2023-05-05T06:48:03.844Z,93.10
2023-05-05T06:53:06.929Z,93.20
2023-05-05T06:58:09.978Z,92.50
2023-05-05T07:03:13.782Z,92.20
2023-05-05T07:08:16.775Z,91.40
2023-05-05T07:13:19.846Z,90.10
2023-05-05T07:18:22.882Z,88.00
2023-05-05T07:23:26.034Z,87.30
2023-05-05T07:28:28.810Z,86.50
2023-05-05T07:33:31.779Z,85.20
2023-05-05T07:38:34.667Z,84.90
2023-05-05T07:43:39.411Z,84.10
2023-05-05T07:48:42.691Z,83.20
2023-05-05T07:53:46.026Z,83.50
2023-05-05T07:58:49.440Z,84.50
2023-05-05T08:03:52.467Z,83.40
2023-05-05T08:08:56.103Z,82.60
2023-05-05T08:13:59.054Z,81.40
2023-05-05T08:19:02.868Z,82.00
2023-05-05T08:24:05.970Z,81.70
2023-05-05T08:29:08.887Z,80.30
2023-05-05T08:34:11.945Z,78.90
2023-05-05T08:39:14.972Z,78.30
2023-05-05T08:44:17.922Z,78.10
2023-05-05T08:49:22.102Z,77.50
2023-05-05T08:54:30.551Z,75.30
2023-05-05T08:59:34.299Z,76.60
2023-05-05T09:04:37.404Z,75.40
2023-05-05T09:09:40.655Z,75.00
2023-05-05T09:14:43.692Z,75.20
2023-05-05T09:20:10.540Z,74.20
2023-05-05T09:25:16.462Z,73.30
2023-05-05T09:30:26.063Z,72.60
2023-05-05T09:35:29.486Z,73.10
2023-05-05T09:40:49.446Z,72.30
2023-05-05T09:46:05.111Z,72.20
2023-05-05T09:51:08.434Z,71.70
2023-05-05T09:56:12.290Z,70.30
2023-05-05T10:01:23.828Z,68.50
2023-05-05T10:06:48.356Z,68.20
2023-05-05T10:11:51.901Z,67.80
2023-05-05T10:16:55.746Z,67.70
2023-05-05T10:22:03.820Z,67.00
2023-05-05T10:27:23.311Z,67.20
2023-05-05T10:37:47.717Z,64.80
2023-05-05T10:42:51.806Z,65.60
2023-05-05T10:47:59.262Z,64.70
2023-05-05T10:53:17.626Z,64.60
2023-05-05T10:58:55.610Z,63.30
2023-05-05T11:04:22.428Z,62.10
2023-05-05T11:09:29.478Z,59.30
2023-05-05T11:14:32.445Z,58.60
2023-05-05T11:19:48.559Z,58.50
2023-05-05T11:24:51.616Z,57.70
2023-05-05T11:30:09.060Z,58.10
2023-05-05T11:35:13.181Z,57.00
2023-05-05T11:40:30.965Z,56.30
2023-05-05T11:45:35.118Z,56.00
2023-05-05T11:50:38.617Z,55.90
2023-05-05T11:55:41.641Z,56.40
2023-05-05T12:00:44.710Z,55.50
2023-05-05T12:05:48.793Z,55.10
2023-05-05T12:10:51.812Z,54.00
2023-05-05T12:15:54.925Z,53.40
2023-05-05T12:20:58.124Z,53.50
2023-05-05T12:26:01.388Z,51.60
2023-05-05T12:31:04.391Z,51.60
2023-05-05T12:36:10.928Z,50.10
2023-05-05T12:41:20.072Z,49.80
2023-05-05T12:46:23.488Z,47.00
2023-05-05T12:51:27.134Z,46.80
2023-05-05T12:56:36.986Z,46.10
2023-05-05T13:01:54.165Z,46.10
2023-05-05T13:07:15.647Z,45.90
2023-05-05T13:12:19.207Z,46.50
2023-05-05T13:17:22.426Z,46.50
2023-05-05T13:22:25.751Z,46.40
2023-05-05T13:27:29.140Z,45.70
2023-05-05T13:32:31.883Z,45.60
2023-05-05T13:37:35.001Z,45.40
2023-05-05T13:42:37.710Z,45.10
2023-05-05T13:47:42.031Z,44.90
2023-05-05T13:52:45.392Z,43.90
2023-05-05T13:57:48.783Z,44.10
2023-05-05T14:02:51.849Z,44.40
2023-05-05T14:07:55.573Z,44.70
2023-05-05T14:12:58.800Z,43.00
2023-05-05T14:18:01.921Z,42.80
2023-05-05T14:23:04.861Z,43.20
2023-05-05T14:28:07.898Z,41.70
2023-05-05T14:33:10.747Z,41.50
2023-05-05T14:38:13.766Z,41.70
2023-05-05T14:43:16.759Z,41.80
2023-05-05T14:48:22.278Z,41.80
2023-05-05T14:53:25.305Z,42.80
2023-05-05T14:58:28.741Z,42.00
2023-05-05T15:03:31.804Z,42.10
2023-05-05T15:08:35.131Z,42.00
2023-05-05T15:13:41.678Z,41.80
2023-05-05T15:18:44.633Z,41.80
2023-05-05T15:23:47.637Z,41.60
2023-05-05T15:28:52.463Z,41.60
2023-05-05T15:33:56.170Z,41.90
2023-05-05T15:38:59.177Z,41.60
2023-05-05T15:44:03.291Z,42.00
2023-05-05T15:49:06.377Z,41.60
2023-05-05T15:54:09.318Z,41.70
2023-05-05T15:59:12.381Z,41.70
2023-05-05T16:04:15.375Z,42.00
2023-05-05T16:09:19.449Z,41.70
2023-05-05T16:14:22.460Z,42.10
2023-05-05T16:19:29.863Z,42.40
2023-05-05T16:24:32.896Z,42.60
2023-05-05T16:29:35.852Z,42.80
2023-05-05T16:34:38.771Z,43.20
2023-05-05T16:39:42.634Z,43.40
2023-05-05T16:44:45.652Z,43.60
2023-05-05T16:49:48.652Z,43.60
2023-05-05T16:54:55.779Z,43.90
2023-05-05T16:59:59.055Z,44.40
2023-05-05T17:05:02.920Z,44.70
2023-05-05T17:10:07.244Z,45.60
2023-05-05T17:15:10.993Z,46.00
2023-05-05T17:20:14.486Z,47.40
2023-05-05T17:25:17.424Z,47.60
2023-05-05T17:30:21.160Z,48.90
2023-05-05T17:35:24.272Z,50.50
2023-05-05T17:40:27.036Z,52.10
2023-05-05T17:45:30.695Z,53.40
2023-05-05T17:50:33.790Z,54.40
2023-05-05T17:55:36.765Z,55.30
2023-05-05T18:00:40.457Z,56.30
2023-05-05T18:05:43.438Z,57.30
2023-05-05T18:10:46.898Z,58.10
2023-05-05T18:15:50.073Z,58.90
2023-05-05T18:20:52.981Z,59.80
2023-05-05T18:25:55.899Z,61.20
2023-05-05T18:30:59.050Z,62.20
2023-05-05T18:36:03.810Z,62.90
2023-05-05T18:41:06.856Z,63.60
2023-05-05T18:46:09.934Z,64.30
2023-05-05T18:51:12.907Z,65.10
2023-05-05T18:56:15.910Z,66.00
2023-05-05T19:01:19.143Z,66.70
2023-05-05T19:06:22.127Z,67.20
2023-05-05T19:11:25.271Z,67.60
2023-05-05T19:16:29.297Z,67.90
2023-05-05T19:21:33.234Z,68.40
2023-05-05T19:26:36.188Z,68.80
2023-05-05T19:31:39.985Z,69.30
2023-05-05T19:36:43.132Z,69.70
2023-05-05T19:41:46.268Z,70.50
2023-05-05T19:46:49.184Z,71.00
2023-05-05T19:51:52.924Z,71.10
2023-05-05T19:56:57.427Z,71.50
2023-05-05T20:02:00.801Z,71.90
2023-05-05T20:07:04.569Z,72.30
2023-05-05T20:12:08.344Z,72.90
2023-05-05T20:17:12.615Z,73.40
2023-05-05T20:22:15.649Z,73.90
2023-05-05T20:27:18.395Z,74.20
2023-05-05T20:32:21.425Z,74.80
2023-05-05T20:37:27.058Z,75.30
2023-05-05T20:42:30.035Z,75.70
2023-05-05T20:47:35.447Z,76.50
2023-05-05T20:52:38.703Z,77.40
2023-05-05T20:57:41.756Z,78.50
2023-05-05T21:02:45.689Z,80.30
2023-05-05T21:07:49.052Z,83.00
2023-05-05T21:12:52.018Z,83.70
2023-05-05T21:17:55.510Z,84.00
2023-05-05T21:22:58.540Z,85.40
2023-05-05T21:28:01.498Z,85.60
2023-05-05T21:33:04.610Z,85.80
2023-05-05T21:38:08.356Z,86.20
2023-05-05T21:43:11.338Z,86.50
2023-05-05T21:48:14.352Z,87.00
2023-05-05T21:53:17.347Z,87.60
2023-05-05T21:58:20.479Z,88.60
2023-05-05T22:03:23.884Z,89.50
2023-05-05T22:08:26.996Z,90.10
2023-05-05T22:13:30.645Z,90.40
2023-05-05T22:18:34.315Z,90.80
2023-05-05T22:23:37.725Z,91.20
2023-05-05T22:28:41.615Z,91.70
2023-05-05T22:33:44.628Z,91.90
2023-05-05T22:38:49.799Z,92.20
2023-05-05T22:43:53.051Z,92.50
2023-05-05T22:48:56.046Z,92.70
2023-05-05T22:53:59.090Z,93.00
2023-05-05T22:59:02.136Z,93.40
2023-05-05T23:04:05.426Z,93.90
2023-05-05T23:09:08.496Z,94.30
2023-05-05T23:14:11.237Z,94.70
2023-05-05T23:19:14.434Z,95.60
2023-05-05T23:24:17.452Z,95.80
2023-05-05T23:29:21.343Z,95.80
2023-05-05T23:34:26.606Z,95.90
2023-05-05T23:39:29.507Z,96.10
2023-05-05T23:44:32.594Z,96.20
2023-05-05T23:49:35.563Z,96.60
2023-05-05T23:54:38.580Z,96.70
2023-05-05T23:59:41.334Z,97.50
